sensor_id;sensor_type;location;lat;lon;timestamp;temperature;humidity
11055;DHT22;5580;50.106;8.702;2023-05-27T00:01:17;16.40;99.90
11055;DHT22;5580;50.106;8.702;2023-05-27T00:03:43;16.30;99.90
11055;DHT22;5580;50.106;8.702;2023-05-27T00:06:08;16.20;99.90
11055;DHT22;5580;50.106;8.702;2023-05-27T00:08:34;16.20;99.90
11055;DHT22;5580;50.106;8.702;2023-05-27T00:10:59;16.20;99.90
11055;DHT22;5580;50.106;8.702;2023-05-27T00:13:25;16.20;99.90
11055;DHT22;5580;50.106;8.702;2023-05-27T00:15:51;16.10;99.90
11055;DHT22;5580;50.106;8.702;2023-05-27T00:18:16;16.10;99.90
11055;DHT22;5580;50.106;8.702;2023-05-27T00:20:42;16.10;99.90
11055;DHT22;5580;50.106;8.702;2023-05-27T00:23:07;16.00;99.90
11055;DHT22;5580;50.106;8.702;2023-05-27T00:25:33;16.00;99.90
11055;DHT22;5580;50.106;8.702;2023-05-27T00:27:59;16.00;99.90
11055;DHT22;5580;50.106;8.702;2023-05-27T00:30:24;16.00;99.90
11055;DHT22;5580;50.106;8.702;2023-05-27T00:32:50;16.00;99.90
11055;DHT22;5580;50.106;8.702;2023-05-27T00:35:15;16.00;99.90
11055;DHT22;5580;50.106;8.702;2023-05-27T00:37:41;16.00;99.90
11055;DHT22;5580;50.106;8.702;2023-05-27T00:40:09;15.90;99.90
11055;DHT22;5580;50.106;8.702;2023-05-27T00:42:35;15.80;99.90
11055;DHT22;5580;50.106;8.702;2023-05-27T00:45:02;15.80;99.90
11055;DHT22;5580;50.106;8.702;2023-05-27T00:47:30;15.80;99.90
11055;DHT22;5580;50.106;8.702;2023-05-27T00:49:56;15.70;99.90
11055;DHT22;5580;50.106;8.702;2023-05-27T00:52:23;15.70;99.90
11055;DHT22;5580;50.106;8.702;2023-05-27T00:54:48;15.70;99.90
11055;DHT22;5580;50.106;8.702;2023-05-27T00:57:14;15.60;99.90
11055;DHT22;5580;50.106;8.702;2023-05-27T00:59:40;15.60;99.90
11055;DHT22;5580;50.106;8.702;2023-05-27T01:02:05;15.60;99.90
11055;DHT22;5580;50.106;8.702;2023-05-27T01:04:31;15.60;99.90
11055;DHT22;5580;50.106;8.702;2023-05-27T01:09:44;15.70;99.90
11055;DHT22;5580;50.106;8.702;2023-05-27T01:12:18;15.70;99.90
11055;DHT22;5580;50.106;8.702;2023-05-27T01:14:45;15.70;99.90
11055;DHT22;5580;50.106;8.702;2023-05-27T01:17:13;15.80;99.90
11055;DHT22;5580;50.106;8.702;2023-05-27T01:19:43;15.70;99.90
11055;DHT22;5580;50.106;8.702;2023-05-27T01:22:12;15.60;99.90
11055;DHT22;5580;50.106;8.702;2023-05-27T01:24:40;15.60;99.90
11055;DHT22;5580;50.106;8.702;2023-05-27T01:27:07;15.50;99.90
11055;DHT22;5580;50.106;8.702;2023-05-27T01:29:34;15.40;99.90
11055;DHT22;5580;50.106;8.702;2023-05-27T01:34:40;15.30;99.90
11055;DHT22;5580;50.106;8.702;2023-05-27T01:37:09;15.30;99.90
11055;DHT22;5580;50.106;8.702;2023-05-27T01:39:39;15.30;99.90
11055;DHT22;5580;50.106;8.702;2023-05-27T01:42:07;15.40;99.90
11055;DHT22;5580;50.106;8.702;2023-05-27T01:44:33;15.30;99.90
11055;DHT22;5580;50.106;8.702;2023-05-27T01:47:01;15.40;99.90
11055;DHT22;5580;50.106;8.702;2023-05-27T01:49:28;15.40;99.90
11055;DHT22;5580;50.106;8.702;2023-05-27T01:51:53;15.20;99.90
11055;DHT22;5580;50.106;8.702;2023-05-27T01:54:19;15.10;99.90
11055;DHT22;5580;50.106;8.702;2023-05-27T01:56:45;15.00;99.90
11055;DHT22;5580;50.106;8.702;2023-05-27T01:59:11;15.00;99.90
11055;DHT22;5580;50.106;8.702;2023-05-27T02:01:36;15.00;99.90
11055;DHT22;5580;50.106;8.702;2023-05-27T02:04:02;14.90;99.90
11055;DHT22;5580;50.106;8.702;2023-05-27T02:06:29;15.00;99.90
11055;DHT22;5580;50.106;8.702;2023-05-27T02:08:54;15.00;99.90
11055;DHT22;5580;50.106;8.702;2023-05-27T02:11:20;15.00;99.90
11055;DHT22;5580;50.106;8.702;2023-05-27T02:13:46;15.00;99.90
11055;DHT22;5580;50.106;8.702;2023-05-27T02:16:11;15.00;99.90
11055;DHT22;5580;50.106;8.702;2023-05-27T02:18:38;14.90;99.90
11055;DHT22;5580;50.106;8.702;2023-05-27T02:21:04;14.80;99.90
11055;DHT22;5580;50.106;8.702;2023-05-27T02:23:32;14.70;99.90
11055;DHT22;5580;50.106;8.702;2023-05-27T02:25:58;14.60;99.90
11055;DHT22;5580;50.106;8.702;2023-05-27T02:28:23;14.50;99.90
11055;DHT22;5580;50.106;8.702;2023-05-27T02:30:49;14.40;99.90
11055;DHT22;5580;50.106;8.702;2023-05-27T02:33:15;14.40;99.90
11055;DHT22;5580;50.106;8.702;2023-05-27T02:35:40;14.30;99.90
11055;DHT22;5580;50.106;8.702;2023-05-27T02:38:06;14.30;99.90
11055;DHT22;5580;50.106;8.702;2023-05-27T02:40:31;14.30;99.90
11055;DHT22;5580;50.106;8.702;2023-05-27T02:42:57;14.50;99.90
11055;DHT22;5580;50.106;8.702;2023-05-27T02:45:22;14.40;99.90
11055;DHT22;5580;50.106;8.702;2023-05-27T02:47:49;14.40;99.90
11055;DHT22;5580;50.106;8.702;2023-05-27T02:50:15;14.30;99.90
11055;DHT22;5580;50.106;8.702;2023-05-27T02:52:40;14.20;99.90
11055;DHT22;5580;50.106;8.702;2023-05-27T02:55:07;14.20;99.90
11055;DHT22;5580;50.106;8.702;2023-05-27T02:57:33;14.20;99.90
11055;DHT22;5580;50.106;8.702;2023-05-27T02:59:59;14.20;99.90
11055;DHT22;5580;50.106;8.702;2023-05-27T03:02:24;14.10;99.90
11055;DHT22;5580;50.106;8.702;2023-05-27T03:04:50;14.10;99.90
11055;DHT22;5580;50.106;8.702;2023-05-27T03:07:15;14.20;99.90
11055;DHT22;5580;50.106;8.702;2023-05-27T03:09:41;14.10;99.90
11055;DHT22;5580;50.106;8.702;2023-05-27T03:12:07;14.00;99.90
11055;DHT22;5580;50.106;8.702;2023-05-27T03:14:32;14.00;99.90
11055;DHT22;5580;50.106;8.702;2023-05-27T03:16:58;14.10;99.90
11055;DHT22;5580;50.106;8.702;2023-05-27T03:19:24;14.20;99.90
11055;DHT22;5580;50.106;8.702;2023-05-27T03:21:50;14.10;99.90
11055;DHT22;5580;50.106;8.702;2023-05-27T03:24:16;14.10;99.90
11055;DHT22;5580;50.106;8.702;2023-05-27T03:26:42;14.00;99.90
11055;DHT22;5580;50.106;8.702;2023-05-27T03:29:07;14.00;99.90
11055;DHT22;5580;50.106;8.702;2023-05-27T03:31:33;14.00;99.90
11055;DHT22;5580;50.106;8.702;2023-05-27T03:33:59;14.00;99.90
11055;DHT22;5580;50.106;8.702;2023-05-27T03:36:24;13.90;99.90
11055;DHT22;5580;50.106;8.702;2023-05-27T03:38:50;13.80;99.90
11055;DHT22;5580;50.106;8.702;2023-05-27T03:41:16;13.70;99.90
11055;DHT22;5580;50.106;8.702;2023-05-27T03:43:41;13.60;99.90
11055;DHT22;5580;50.106;8.702;2023-05-27T03:46:07;13.50;99.90
11055;DHT22;5580;50.106;8.702;2023-05-27T03:48:32;13.50;99.90
11055;DHT22;5580;50.106;8.702;2023-05-27T03:50:58;13.40;99.90
11055;DHT22;5580;50.106;8.702;2023-05-27T03:53:24;13.40;99.90
11055;DHT22;5580;50.106;8.702;2023-05-27T03:55:50;13.50;99.90
11055;DHT22;5580;50.106;8.702;2023-05-27T03:58:15;13.40;99.90
11055;DHT22;5580;50.106;8.702;2023-05-27T04:00:42;13.40;99.90
11055;DHT22;5580;50.106;8.702;2023-05-27T04:03:08;13.40;99.90
11055;DHT22;5580;50.106;8.702;2023-05-27T04:05:34;13.40;99.90
11055;DHT22;5580;50.106;8.702;2023-05-27T04:08:01;13.40;99.90
11055;DHT22;5580;50.106;8.702;2023-05-27T04:10:27;13.50;99.90
11055;DHT22;5580;50.106;8.702;2023-05-27T04:12:53;13.50;99.90
11055;DHT22;5580;50.106;8.702;2023-05-27T04:15:18;13.50;99.90
11055;DHT22;5580;50.106;8.702;2023-05-27T04:17:44;13.50;99.90
11055;DHT22;5580;50.106;8.702;2023-05-27T04:20:10;13.50;99.90
11055;DHT22;5580;50.106;8.702;2023-05-27T04:22:40;13.50;99.90
11055;DHT22;5580;50.106;8.702;2023-05-27T04:25:06;13.50;99.90
11055;DHT22;5580;50.106;8.702;2023-05-27T04:27:32;13.50;99.90
11055;DHT22;5580;50.106;8.702;2023-05-27T04:29:59;13.50;99.90
11055;DHT22;5580;50.106;8.702;2023-05-27T04:32:25;13.50;99.90
11055;DHT22;5580;50.106;8.702;2023-05-27T04:34:53;13.70;99.90
11055;DHT22;5580;50.106;8.702;2023-05-27T04:37:18;13.80;99.90
11055;DHT22;5580;50.106;8.702;2023-05-27T04:39:45;13.90;99.90
11055;DHT22;5580;50.106;8.702;2023-05-27T04:42:12;13.90;99.90
11055;DHT22;5580;50.106;8.702;2023-05-27T04:44:38;14.00;99.90
11055;DHT22;5580;50.106;8.702;2023-05-27T04:47:04;14.00;99.90
11055;DHT22;5580;50.106;8.702;2023-05-27T04:49:30;14.10;99.90
11055;DHT22;5580;50.106;8.702;2023-05-27T04:51:57;14.30;99.90
11055;DHT22;5580;50.106;8.702;2023-05-27T04:54:23;14.40;99.90
11055;DHT22;5580;50.106;8.702;2023-05-27T04:56:48;14.40;99.90
11055;DHT22;5580;50.106;8.702;2023-05-27T04:59:17;14.40;99.90
11055;DHT22;5580;50.106;8.702;2023-05-27T05:01:45;14.40;99.90
11055;DHT22;5580;50.106;8.702;2023-05-27T05:04:34;14.30;99.90
11055;DHT22;5580;50.106;8.702;2023-05-27T05:06:59;14.40;99.90
11055;DHT22;5580;50.106;8.702;2023-05-27T05:09:25;14.40;99.90
11055;DHT22;5580;50.106;8.702;2023-05-27T05:11:51;14.40;99.90
11055;DHT22;5580;50.106;8.702;2023-05-27T05:14:16;14.40;99.90
11055;DHT22;5580;50.106;8.702;2023-05-27T05:16:42;14.30;99.90
11055;DHT22;5580;50.106;8.702;2023-05-27T05:19:07;14.40;99.90
11055;DHT22;5580;50.106;8.702;2023-05-27T05:21:33;14.20;99.90
11055;DHT22;5580;50.106;8.702;2023-05-27T05:23:58;14.30;99.90
11055;DHT22;5580;50.106;8.702;2023-05-27T05:26:24;14.30;99.90
11055;DHT22;5580;50.106;8.702;2023-05-27T05:28:51;14.30;99.90
11055;DHT22;5580;50.106;8.702;2023-05-27T05:31:16;14.30;99.90
11055;DHT22;5580;50.106;8.702;2023-05-27T05:33:42;14.40;99.90
11055;DHT22;5580;50.106;8.702;2023-05-27T05:36:08;14.40;99.90
11055;DHT22;5580;50.106;8.702;2023-05-27T05:38:33;14.50;99.90
11055;DHT22;5580;50.106;8.702;2023-05-27T05:41:00;14.70;99.90
11055;DHT22;5580;50.106;8.702;2023-05-27T05:43:26;14.60;99.90
11055;DHT22;5580;50.106;8.702;2023-05-27T05:45:52;14.70;99.90
11055;DHT22;5580;50.106;8.702;2023-05-27T05:48:17;14.80;99.90
11055;DHT22;5580;50.106;8.702;2023-05-27T05:50:43;14.70;99.90
11055;DHT22;5580;50.106;8.702;2023-05-27T05:53:09;14.70;99.90
11055;DHT22;5580;50.106;8.702;2023-05-27T05:55:35;14.90;99.90
11055;DHT22;5580;50.106;8.702;2023-05-27T05:58:01;15.00;99.90
11055;DHT22;5580;50.106;8.702;2023-05-27T06:00:27;15.00;99.90
11055;DHT22;5580;50.106;8.702;2023-05-27T06:02:52;15.00;99.90
11055;DHT22;5580;50.106;8.702;2023-05-27T06:05:18;15.00;99.90
11055;DHT22;5580;50.106;8.702;2023-05-27T06:07:44;15.10;99.90
11055;DHT22;5580;50.106;8.702;2023-05-27T06:10:10;15.10;99.90
11055;DHT22;5580;50.106;8.702;2023-05-27T06:12:36;15.20;99.90
11055;DHT22;5580;50.106;8.702;2023-05-27T06:15:02;15.30;99.90
11055;DHT22;5580;50.106;8.702;2023-05-27T06:17:28;15.50;99.90
11055;DHT22;5580;50.106;8.702;2023-05-27T06:19:53;15.60;99.90
11055;DHT22;5580;50.106;8.702;2023-05-27T06:22:19;15.60;99.90
11055;DHT22;5580;50.106;8.702;2023-05-27T06:24:44;15.50;99.90
11055;DHT22;5580;50.106;8.702;2023-05-27T06:27:10;15.50;99.90
11055;DHT22;5580;50.106;8.702;2023-05-27T06:29:35;15.50;99.90
11055;DHT22;5580;50.106;8.702;2023-05-27T06:32:01;15.40;99.90
11055;DHT22;5580;50.106;8.702;2023-05-27T06:34:27;15.40;99.90
11055;DHT22;5580;50.106;8.702;2023-05-27T06:36:52;15.30;99.90
11055;DHT22;5580;50.106;8.702;2023-05-27T06:39:18;15.30;99.90
11055;DHT22;5580;50.106;8.702;2023-05-27T06:41:43;15.20;99.90
11055;DHT22;5580;50.106;8.702;2023-05-27T06:44:09;15.20;99.90
11055;DHT22;5580;50.106;8.702;2023-05-27T06:46:35;15.30;99.90
11055;DHT22;5580;50.106;8.702;2023-05-27T06:49:00;15.30;99.90
11055;DHT22;5580;50.106;8.702;2023-05-27T06:51:26;15.30;99.90
11055;DHT22;5580;50.106;8.702;2023-05-27T06:53:52;15.30;99.90
11055;DHT22;5580;50.106;8.702;2023-05-27T06:56:18;15.30;99.90
11055;DHT22;5580;50.106;8.702;2023-05-27T06:58:45;15.30;99.90
11055;DHT22;5580;50.106;8.702;2023-05-27T07:01:10;15.30;99.90
11055;DHT22;5580;50.106;8.702;2023-05-27T07:03:36;15.20;99.90
11055;DHT22;5580;50.106;8.702;2023-05-27T07:06:02;15.40;99.90
11055;DHT22;5580;50.106;8.702;2023-05-27T07:08:27;15.50;99.90
11055;DHT22;5580;50.106;8.702;2023-05-27T07:10:53;15.60;99.90
11055;DHT22;5580;50.106;8.702;2023-05-27T07:13:18;15.60;99.90
11055;DHT22;5580;50.106;8.702;2023-05-27T07:15:44;15.80;99.90
11055;DHT22;5580;50.106;8.702;2023-05-27T07:18:10;16.00;99.90
11055;DHT22;5580;50.106;8.702;2023-05-27T07:20:35;16.10;99.90
11055;DHT22;5580;50.106;8.702;2023-05-27T07:23:01;16.20;99.90
11055;DHT22;5580;50.106;8.702;2023-05-27T07:25:27;16.30;99.90
11055;DHT22;5580;50.106;8.702;2023-05-27T07:27:52;16.30;99.90
11055;DHT22;5580;50.106;8.702;2023-05-27T07:30:18;16.40;99.90
11055;DHT22;5580;50.106;8.702;2023-05-27T07:32:45;16.60;99.90
11055;DHT22;5580;50.106;8.702;2023-05-27T07:35:10;16.80;99.90
11055;DHT22;5580;50.106;8.702;2023-05-27T07:37:36;16.90;99.90
11055;DHT22;5580;50.106;8.702;2023-05-27T07:40:01;17.00;99.90
11055;DHT22;5580;50.106;8.702;2023-05-27T07:42:27;17.00;99.90
11055;DHT22;5580;50.106;8.702;2023-05-27T07:44:53;17.10;99.90
11055;DHT22;5580;50.106;8.702;2023-05-27T07:47:19;17.30;99.90
11055;DHT22;5580;50.106;8.702;2023-05-27T07:49:45;17.30;99.90
11055;DHT22;5580;50.106;8.702;2023-05-27T07:52:11;17.40;99.90
11055;DHT22;5580;50.106;8.702;2023-05-27T07:54:36;17.60;99.90
11055;DHT22;5580;50.106;8.702;2023-05-27T07:57:02;17.60;99.90
11055;DHT22;5580;50.106;8.702;2023-05-27T07:59:28;17.70;99.90
11055;DHT22;5580;50.106;8.702;2023-05-27T08:01:55;17.80;99.90
11055;DHT22;5580;50.106;8.702;2023-05-27T08:04:20;18.00;99.90
11055;DHT22;5580;50.106;8.702;2023-05-27T08:06:46;18.10;99.90
11055;DHT22;5580;50.106;8.702;2023-05-27T08:09:11;18.20;99.90
11055;DHT22;5580;50.106;8.702;2023-05-27T08:11:37;18.30;99.90
11055;DHT22;5580;50.106;8.702;2023-05-27T08:14:02;18.50;99.90
11055;DHT22;5580;50.106;8.702;2023-05-27T08:16:28;18.60;99.90
11055;DHT22;5580;50.106;8.702;2023-05-27T08:18:53;18.80;99.90
11055;DHT22;5580;50.106;8.702;2023-05-27T08:21:19;18.90;99.90
11055;DHT22;5580;50.106;8.702;2023-05-27T08:23:45;19.00;99.90
11055;DHT22;5580;50.106;8.702;2023-05-27T08:26:10;19.00;99.90
11055;DHT22;5580;50.106;8.702;2023-05-27T08:28:36;18.90;99.90
11055;DHT22;5580;50.106;8.702;2023-05-27T08:31:03;18.80;99.90
11055;DHT22;5580;50.106;8.702;2023-05-27T08:33:29;18.80;99.90
11055;DHT22;5580;50.106;8.702;2023-05-27T08:35:56;18.90;99.90
11055;DHT22;5580;50.106;8.702;2023-05-27T08:38:21;18.90;99.90
11055;DHT22;5580;50.106;8.702;2023-05-27T08:40:48;19.00;99.90
11055;DHT22;5580;50.106;8.702;2023-05-27T08:43:14;19.00;99.90
11055;DHT22;5580;50.106;8.702;2023-05-27T08:45:40;19.00;99.90
11055;DHT22;5580;50.106;8.702;2023-05-27T08:48:08;19.00;99.90
11055;DHT22;5580;50.106;8.702;2023-05-27T08:50:34;18.90;99.90
11055;DHT22;5580;50.106;8.702;2023-05-27T08:53:01;19.00;99.90
11055;DHT22;5580;50.106;8.702;2023-05-27T08:55:29;18.90;99.90
11055;DHT22;5580;50.106;8.702;2023-05-27T08:57:57;18.90;99.90
11055;DHT22;5580;50.106;8.702;2023-05-27T09:00:24;18.90;99.90
11055;DHT22;5580;50.106;8.702;2023-05-27T09:02:50;19.00;99.90
11055;DHT22;5580;50.106;8.702;2023-05-27T09:05:16;19.10;99.90
11055;DHT22;5580;50.106;8.702;2023-05-27T09:07:43;19.00;99.90
11055;DHT22;5580;50.106;8.702;2023-05-27T09:10:09;19.00;99.90
11055;DHT22;5580;50.106;8.702;2023-05-27T09:12:35;19.10;99.90
11055;DHT22;5580;50.106;8.702;2023-05-27T09:15:02;19.10;99.90
11055;DHT22;5580;50.106;8.702;2023-05-27T09:17:28;19.20;99.90
11055;DHT22;5580;50.106;8.702;2023-05-27T09:19:54;19.20;99.90
11055;DHT22;5580;50.106;8.702;2023-05-27T09:22:21;19.20;99.90
11055;DHT22;5580;50.106;8.702;2023-05-27T09:24:48;19.20;99.90
11055;DHT22;5580;50.106;8.702;2023-05-27T09:27:14;19.30;99.90
11055;DHT22;5580;50.106;8.702;2023-05-27T09:29:40;19.30;99.90
11055;DHT22;5580;50.106;8.702;2023-05-27T09:32:06;19.50;99.90
11055;DHT22;5580;50.106;8.702;2023-05-27T09:34:40;19.70;99.90
11055;DHT22;5580;50.106;8.702;2023-05-27T09:37:12;19.60;99.90
11055;DHT22;5580;50.106;8.702;2023-05-27T09:39:40;19.60;99.90
11055;DHT22;5580;50.106;8.702;2023-05-27T09:42:06;19.70;99.90
11055;DHT22;5580;50.106;8.702;2023-05-27T09:44:35;19.70;99.90
11055;DHT22;5580;50.106;8.702;2023-05-27T09:47:07;19.60;99.90
11055;DHT22;5580;50.106;8.702;2023-05-27T09:49:39;19.70;99.90
11055;DHT22;5580;50.106;8.702;2023-05-27T09:52:07;19.70;99.90
11055;DHT22;5580;50.106;8.702;2023-05-27T09:54:34;19.70;99.90
11055;DHT22;5580;50.106;8.702;2023-05-27T09:57:02;19.90;99.90
11055;DHT22;5580;50.106;8.702;2023-05-27T09:59:27;19.90;99.90
11055;DHT22;5580;50.106;8.702;2023-05-27T10:01:54;19.90;99.90
11055;DHT22;5580;50.106;8.702;2023-05-27T10:04:21;19.90;99.90
11055;DHT22;5580;50.106;8.702;2023-05-27T10:06:47;20.00;99.90
11055;DHT22;5580;50.106;8.702;2023-05-27T10:09:13;20.10;99.90
11055;DHT22;5580;50.106;8.702;2023-05-27T10:11:41;20.10;99.90
11055;DHT22;5580;50.106;8.702;2023-05-27T10:14:08;20.10;99.90
11055;DHT22;5580;50.106;8.702;2023-05-27T10:16:36;20.20;99.90
11055;DHT22;5580;50.106;8.702;2023-05-27T10:19:01;20.30;99.90
11055;DHT22;5580;50.106;8.702;2023-05-27T10:21:29;20.30;99.90
11055;DHT22;5580;50.106;8.702;2023-05-27T10:24:00;20.30;99.90
11055;DHT22;5580;50.106;8.702;2023-05-27T10:26:33;20.30;99.90
11055;DHT22;5580;50.106;8.702;2023-05-27T10:29:06;20.40;99.90
11055;DHT22;5580;50.106;8.702;2023-05-27T10:31:33;20.40;99.90
11055;DHT22;5580;50.106;8.702;2023-05-27T10:33:59;20.30;99.90
11055;DHT22;5580;50.106;8.702;2023-05-27T10:36:26;20.40;99.90
11055;DHT22;5580;50.106;8.702;2023-05-27T10:39:14;20.40;99.90
11055;DHT22;5580;50.106;8.702;2023-05-27T10:41:54;20.50;99.90
11055;DHT22;5580;50.106;8.702;2023-05-27T10:49:34;20.40;99.90
11055;DHT22;5580;50.106;8.702;2023-05-27T10:52:13;20.40;99.90
11055;DHT22;5580;50.106;8.702;2023-05-27T10:54:40;20.50;99.90
11055;DHT22;5580;50.106;8.702;2023-05-27T10:57:07;20.50;99.90
11055;DHT22;5580;50.106;8.702;2023-05-27T10:59:48;20.40;99.90
11055;DHT22;5580;50.106;8.702;2023-05-27T11:02:24;20.50;99.90
11055;DHT22;5580;50.106;8.702;2023-05-27T11:04:54;20.50;99.90
11055;DHT22;5580;50.106;8.702;2023-05-27T11:07:21;20.50;99.90
11055;DHT22;5580;50.106;8.702;2023-05-27T11:09:47;20.50;99.90
11055;DHT22;5580;50.106;8.702;2023-05-27T11:12:17;20.50;99.90
11055;DHT22;5580;50.106;8.702;2023-05-27T11:14:48;20.50;99.90
11055;DHT22;5580;50.106;8.702;2023-05-27T11:17:13;20.60;99.90
11055;DHT22;5580;50.106;8.702;2023-05-27T11:19:40;20.60;99.90
11055;DHT22;5580;50.106;8.702;2023-05-27T11:22:09;20.70;99.90
11055;DHT22;5580;50.106;8.702;2023-05-27T11:24:36;20.70;99.90
11055;DHT22;5580;50.106;8.702;2023-05-27T11:27:12;20.70;99.90
11055;DHT22;5580;50.106;8.702;2023-05-27T11:29:39;20.70;99.90
11055;DHT22;5580;50.106;8.702;2023-05-27T11:32:06;20.70;99.90
11055;DHT22;5580;50.106;8.702;2023-05-27T11:34:36;20.70;99.90
11055;DHT22;5580;50.106;8.702;2023-05-27T11:37:03;20.70;99.90
11055;DHT22;5580;50.106;8.702;2023-05-27T11:39:32;20.70;99.90
11055;DHT22;5580;50.106;8.702;2023-05-27T11:41:57;20.70;99.90
11055;DHT22;5580;50.106;8.702;2023-05-27T11:44:24;20.70;99.80
11055;DHT22;5580;50.106;8.702;2023-05-27T11:46:51;20.70;99.90
11055;DHT22;5580;50.106;8.702;2023-05-27T11:49:18;20.70;99.90
11055;DHT22;5580;50.106;8.702;2023-05-27T11:51:46;20.70;99.20
11055;DHT22;5580;50.106;8.702;2023-05-27T11:54:24;20.80;99.90
11055;DHT22;5580;50.106;8.702;2023-05-27T11:56:50;20.80;99.90
11055;DHT22;5580;50.106;8.702;2023-05-27T11:59:16;20.90;99.90
11055;DHT22;5580;50.106;8.702;2023-05-27T12:01:43;20.90;99.70
11055;DHT22;5580;50.106;8.702;2023-05-27T12:04:08;20.90;99.80
11055;DHT22;5580;50.106;8.702;2023-05-27T12:06:35;21.00;99.70
11055;DHT22;5580;50.106;8.702;2023-05-27T12:09:02;21.00;99.40
11055;DHT22;5580;50.106;8.702;2023-05-27T12:11:28;21.00;99.10
11055;DHT22;5580;50.106;8.702;2023-05-27T12:13:54;21.00;99.90
11055;DHT22;5580;50.106;8.702;2023-05-27T12:16:20;21.10;99.90
11055;DHT22;5580;50.106;8.702;2023-05-27T12:18:46;21.10;99.20
11055;DHT22;5580;50.106;8.702;2023-05-27T12:21:11;21.10;99.30
11055;DHT22;5580;50.106;8.702;2023-05-27T12:23:37;21.20;98.30
11055;DHT22;5580;50.106;8.702;2023-05-27T12:26:03;21.20;98.00
11055;DHT22;5580;50.106;8.702;2023-05-27T12:28:28;21.10;97.90
11055;DHT22;5580;50.106;8.702;2023-05-27T12:30:55;21.20;97.60
11055;DHT22;5580;50.106;8.702;2023-05-27T12:33:21;21.20;98.60
11055;DHT22;5580;50.106;8.702;2023-05-27T12:35:46;21.20;97.80
11055;DHT22;5580;50.106;8.702;2023-05-27T12:38:12;21.20;98.00
11055;DHT22;5580;50.106;8.702;2023-05-27T12:40:37;21.30;97.20
11055;DHT22;5580;50.106;8.702;2023-05-27T12:43:03;21.30;97.80
11055;DHT22;5580;50.106;8.702;2023-05-27T12:45:30;21.30;97.60
11055;DHT22;5580;50.106;8.702;2023-05-27T12:47:55;21.40;98.40
11055;DHT22;5580;50.106;8.702;2023-05-27T12:50:21;21.40;97.20
11055;DHT22;5580;50.106;8.702;2023-05-27T12:52:48;21.40;97.10
11055;DHT22;5580;50.106;8.702;2023-05-27T12:55:15;21.40;97.40
11055;DHT22;5580;50.106;8.702;2023-05-27T12:57:48;21.40;97.50
11055;DHT22;5580;50.106;8.702;2023-05-27T13:00:14;21.40;97.50
11055;DHT22;5580;50.106;8.702;2023-05-27T13:02:41;21.40;96.90
11055;DHT22;5580;50.106;8.702;2023-05-27T13:05:08;21.40;97.20
11055;DHT22;5580;50.106;8.702;2023-05-27T13:07:34;21.50;96.90
11055;DHT22;5580;50.106;8.702;2023-05-27T13:10:01;21.50;96.70
11055;DHT22;5580;50.106;8.702;2023-05-27T13:12:28;21.60;96.40
11055;DHT22;5580;50.106;8.702;2023-05-27T13:14:54;21.50;96.80
11055;DHT22;5580;50.106;8.702;2023-05-27T13:17:19;21.50;96.40
11055;DHT22;5580;50.106;8.702;2023-05-27T13:19:47;21.50;96.70
11055;DHT22;5580;50.106;8.702;2023-05-27T13:22:12;21.60;96.30
11055;DHT22;5580;50.106;8.702;2023-05-27T13:24:39;21.60;96.80
11055;DHT22;5580;50.106;8.702;2023-05-27T13:27:05;21.60;95.90
11055;DHT22;5580;50.106;8.702;2023-05-27T13:29:31;21.60;96.30
11055;DHT22;5580;50.106;8.702;2023-05-27T13:31:57;21.70;95.70
11055;DHT22;5580;50.106;8.702;2023-05-27T13:34:22;21.70;96.40
11055;DHT22;5580;50.106;8.702;2023-05-27T13:36:48;21.80;94.90
11055;DHT22;5580;50.106;8.702;2023-05-27T13:39:14;21.80;94.80
11055;DHT22;5580;50.106;8.702;2023-05-27T13:41:39;21.80;94.70
11055;DHT22;5580;50.106;8.702;2023-05-27T13:44:05;21.80;94.90
11055;DHT22;5580;50.106;8.702;2023-05-27T13:46:30;21.80;94.90
11055;DHT22;5580;50.106;8.702;2023-05-27T13:48:56;21.90;95.00
11055;DHT22;5580;50.106;8.702;2023-05-27T13:51:22;21.90;95.20
11055;DHT22;5580;50.106;8.702;2023-05-27T13:53:47;21.90;95.20
11055;DHT22;5580;50.106;8.702;2023-05-27T13:56:14;21.90;95.40
11055;DHT22;5580;50.106;8.702;2023-05-27T13:58:39;21.90;94.70
11055;DHT22;5580;50.106;8.702;2023-05-27T14:01:05;21.90;95.30
11055;DHT22;5580;50.106;8.702;2023-05-27T14:03:31;22.00;95.60
11055;DHT22;5580;50.106;8.702;2023-05-27T14:05:56;22.00;94.90
11055;DHT22;5580;50.106;8.702;2023-05-27T14:08:22;22.00;94.70
11055;DHT22;5580;50.106;8.702;2023-05-27T14:10:48;22.00;95.30
11055;DHT22;5580;50.106;8.702;2023-05-27T14:13:13;22.10;95.50
11055;DHT22;5580;50.106;8.702;2023-05-27T14:15:39;22.10;95.00
11055;DHT22;5580;50.106;8.702;2023-05-27T14:18:05;22.10;95.10
11055;DHT22;5580;50.106;8.702;2023-05-27T14:20:31;22.10;95.40
11055;DHT22;5580;50.106;8.702;2023-05-27T14:22:56;22.20;95.70
11055;DHT22;5580;50.106;8.702;2023-05-27T14:25:27;22.20;95.30
11055;DHT22;5580;50.106;8.702;2023-05-27T14:27:53;22.20;94.80
11055;DHT22;5580;50.106;8.702;2023-05-27T14:30:19;22.20;94.50
11055;DHT22;5580;50.106;8.702;2023-05-27T14:32:44;22.30;94.50
11055;DHT22;5580;50.106;8.702;2023-05-27T14:35:10;22.30;94.20
11055;DHT22;5580;50.106;8.702;2023-05-27T14:37:36;22.30;94.40
11055;DHT22;5580;50.106;8.702;2023-05-27T14:40:02;22.40;94.50
11055;DHT22;5580;50.106;8.702;2023-05-27T14:42:28;22.30;93.90
11055;DHT22;5580;50.106;8.702;2023-05-27T14:44:53;22.30;93.70
11055;DHT22;5580;50.106;8.702;2023-05-27T14:47:19;22.30;93.70
11055;DHT22;5580;50.106;8.702;2023-05-27T14:49:47;22.30;94.10
11055;DHT22;5580;50.106;8.702;2023-05-27T14:52:12;22.40;94.80
11055;DHT22;5580;50.106;8.702;2023-05-27T14:54:38;22.50;93.70
11055;DHT22;5580;50.106;8.702;2023-05-27T14:57:04;22.40;93.10
11055;DHT22;5580;50.106;8.702;2023-05-27T14:59:29;22.40;93.60
11055;DHT22;5580;50.106;8.702;2023-05-27T15:01:55;22.40;93.70
11055;DHT22;5580;50.106;8.702;2023-05-27T15:04:20;22.40;94.00
11055;DHT22;5580;50.106;8.702;2023-05-27T15:06:46;22.50;94.40
11055;DHT22;5580;50.106;8.702;2023-05-27T15:09:11;22.50;94.60
11055;DHT22;5580;50.106;8.702;2023-05-27T15:11:40;22.50;94.20
11055;DHT22;5580;50.106;8.702;2023-05-27T15:14:06;22.60;93.70
11055;DHT22;5580;50.106;8.702;2023-05-27T15:16:31;22.50;94.20
11055;DHT22;5580;50.106;8.702;2023-05-27T15:18:57;22.50;94.20
11055;DHT22;5580;50.106;8.702;2023-05-27T15:21:25;22.60;93.80
11055;DHT22;5580;50.106;8.702;2023-05-27T15:23:51;22.60;94.00
11055;DHT22;5580;50.106;8.702;2023-05-27T15:26:16;22.60;94.10
11055;DHT22;5580;50.106;8.702;2023-05-27T15:28:43;22.60;93.90
11055;DHT22;5580;50.106;8.702;2023-05-27T15:31:09;22.60;93.60
11055;DHT22;5580;50.106;8.702;2023-05-27T15:33:34;22.60;93.60
11055;DHT22;5580;50.106;8.702;2023-05-27T15:36:00;22.60;94.30
11055;DHT22;5580;50.106;8.702;2023-05-27T15:38:26;22.70;93.80
11055;DHT22;5580;50.106;8.702;2023-05-27T15:40:52;22.80;93.50
11055;DHT22;5580;50.106;8.702;2023-05-27T15:43:17;22.70;93.20
11055;DHT22;5580;50.106;8.702;2023-05-27T15:45:44;22.80;93.50
11055;DHT22;5580;50.106;8.702;2023-05-27T15:48:10;22.70;93.80
11055;DHT22;5580;50.106;8.702;2023-05-27T15:50:41;22.80;93.00